Terminal Aerodrome Forecast
Issued by NWS Central Illinois

Current Version | Previous Version | Text Only | Print | Product List | Glossary On
Versions: 1 2 3 4 5 6 7 8 9 10 11 12 13 14 15 16 17 18 19 20 21 22 23 24 25 26 27 28
000
FTUS43 KILX 051408 AAB
TAFPIA
TAF AMD
KPIA 051408Z 0514/0612 16004KT 4SM BR SCT070 BKN150
     FM051500 19008KT P6SM SCT150
     FM051800 22008G16KT P6SM VCTS BKN040CB
     FM060000 17005KT P6SM BKN050=

USA.gov is the U.S. government's official web portal to all federal, state and local government web resources and services.